Time;durP1;ratioP1;P1;durP2;ratioP2;P2;SDS_P1;SDS_P2;PMS_P1;PMS_P2;Temp;Humidity;BMP_temperature;BMP_pressure;BME280_temperature;BME280_humidity;BME280_pressure;Samples;Min_cycle;Max_cycle;Signal;HPM_P1;HPM_P2
2022/09/09 00:00:36;;;;;;;3.60;1.17;;;;;;;8.95;100.00;92839.03;2073818;28;20102;-74
2022/09/09 00:02:02;;;;;;;4.43;1.25;;;;;;;8.87;100.00;92840.34;2071046;28;20025;-74
2022/09/09 00:03:40;;;;;;;4.07;1.17;;;;;;;8.81;100.00;92839.31;2077374;28;20044;-74
2022/09/09 00:04:45;;;;;;;1.88;0.88;;;;;;;8.84;100.00;92841.16;2048849;28;20099;-74
2022/09/09 00:06:13;;;;;;;3.95;1.20;;;;;;;8.82;100.00;92838.91;2050818;28;20049;-74
2022/09/09 00:07:24;;;;;;;3.97;1.52;;;;;;;8.79;100.00;92839.72;2080561;28;20045;-73
2022/09/09 00:08:42;;;;;;;4.20;0.98;;;;;;;8.79;100.00;92834.41;2082302;28;20899;-73
2022/09/09 00:09:54;;;;;;;7.88;0.82;;;;;;;8.74;100.00;92840.22;2081376;28;20034;-73
2022/09/09 00:11:01;;;;;;;5.10;1.23;;;;;;;8.63;100.00;92838.91;2082395;28;21311;-74
2022/09/09 00:12:15;;;;;;;2.10;1.30;;;;;;;8.59;100.00;92833.63;2085229;28;20033;-74
2022/09/09 00:13:24;;;;;;;3.05;1.10;;;;;;;8.55;100.00;92841.69;2081270;28;20120;-73
2022/09/09 00:14:34;;;;;;;2.17;1.13;;;;;;;8.54;100.00;92834.13;2080569;28;20030;-74
2022/09/09 00:16:12;;;;;;;4.07;1.13;;;;;;;8.53;100.00;92832.63;2084653;28;20439;-74
2022/09/09 00:17:41;;;;;;;5.10;1.20;;;;;;;8.56;100.00;92832.56;2081360;28;20045;-74
2022/09/09 00:19:13;;;;;;;4.72;1.13;;;;;;;8.53;100.00;92835.28;2080295;28;20033;-74
2022/09/09 00:20:38;;;;;;;2.95;1.10;;;;;;;8.44;100.00;92827.09;2078507;28;20026;-74
2022/09/09 00:21:57;;;;;;;4.60;1.00;;;;;;;8.41;100.00;92825.97;2078156;28;20033;-74
2022/09/09 00:23:14;;;;;;;2.03;0.85;;;;;;;8.46;100.00;92822.09;2081393;28;20056;-74
2022/09/09 00:24:55;;;;;;;5.13;1.10;;;;;;;8.44;100.00;92825.16;2079769;28;20037;-75
2022/09/09 00:26:20;;;;;;;5.55;1.27;;;;;;;8.44;100.00;92833.16;2048138;28;20042;-75
2022/09/09 00:27:39;;;;;;;2.72;1.05;;;;;;;8.45;100.00;92816.00;2080971;28;20460;-75
2022/09/09 00:29:15;;;;;;;2.55;1.23;;;;;;;8.40;100.00;92827.16;2078452;28;20033;-75
2022/09/09 00:30:22;;;;;;;2.08;1.20;;;;;;;8.46;100.00;92814.84;2047229;28;20039;-75
2022/09/09 00:31:27;;;;;;;4.57;1.00;;;;;;;8.46;100.00;92820.16;2077971;28;20048;-75
2022/09/09 00:32:30;;;;;;;4.28;1.58;;;;;;;8.41;100.00;92820.66;2080413;28;20048;-75
2022/09/09 00:33:31;;;;;;;1.90;0.98;;;;;;;8.48;100.00;92809.88;2080320;28;20118;-75
2022/09/09 00:34:33;;;;;;;5.45;1.30;;;;;;;8.52;100.00;92820.47;2080172;28;20460;-75
2022/09/09 00:35:40;;;;;;;3.63;1.00;;;;;;;8.48;100.00;92825.84;2079499;28;20119;-75
2022/09/09 00:36:43;;;;;;;3.65;1.00;;;;;;;8.47;100.00;92823.59;2079336;28;20352;-74
2022/09/09 00:37:48;;;;;;;4.95;1.20;;;;;;;8.44;100.00;92827.84;2078710;28;20042;-74
2022/09/09 00:39:00;;;;;;;4.88;1.40;;;;;;;8.52;100.00;92821.22;2079879;28;20038;-74
2022/09/09 00:40:32;;;;;;;6.15;1.63;;;;;;;8.58;100.00;92821.47;2083523;28;20083;-74
2022/09/09 00:42:18;;;;;;;6.78;1.15;;;;;;;8.51;100.00;92814.38;2074575;28;20086;-74
2022/09/09 00:43:38;;;;;;;2.08;1.00;;;;;;;8.60;100.00;92816.50;2078317;28;20423;-73
2022/09/09 00:44:51;;;;;;;3.97;1.15;;;;;;;8.59;100.00;92815.00;2078342;28;20037;-72
2022/09/09 00:46:14;;;;;;;4.78;1.17;;;;;;;8.56;100.00;92819.25;2079301;28;20041;-74
2022/09/09 00:47:30;;;;;;;2.05;1.10;;;;;;;8.60;100.00;92815.75;2079131;28;20037;-74
2022/09/09 00:48:54;;;;;;;4.70;1.23;;;;;;;8.62;100.00;92814.19;2070623;28;20131;-74
2022/09/09 00:50:14;;;;;;;4.97;1.52;;;;;;;8.56;100.00;92824.56;2071821;28;20416;-73
2022/09/09 00:51:24;;;;;;;3.92;1.10;;;;;;;8.62;100.00;92824.09;2071258;28;20038;-74
2022/09/09 00:53:05;;;;;;;4.13;1.27;;;;;;;8.58;100.00;92826.81;2071467;28;20030;-74
2022/09/09 00:54:37;;;;;;;3.50;1.08;;;;;;;8.57;100.00;92828.72;2071589;28;20034;-74
2022/09/09 00:55:48;;;;;;;4.03;1.20;;;;;;;8.52;100.00;92831.88;2071192;28;20100;-73
2022/09/09 00:57:06;;;;;;;7.53;1.30;;;;;;;8.45;100.00;92831.25;2069985;28;20517;-74
2022/09/09 00:58:09;;;;;;;2.58;1.08;;;;;;;8.41;100.00;92833.22;2069918;28;20038;-73
2022/09/09 00:59:10;;;;;;;4.80;1.23;;;;;;;8.39;100.00;92832.88;2074545;28;20029;-73
2022/09/09 01:00:26;;;;;;;6.43;1.38;;;;;;;8.44;100.00;92829.75;2069702;28;20076;-74
2022/09/09 01:01:27;;;;;;;7.63;1.30;;;;;;;8.46;100.00;92833.50;2074780;28;20030;-74
2022/09/09 01:02:42;;;;;;;1.73;0.93;;;;;;;8.48;100.00;92830.44;2071384;28;20026;-73
2022/09/09 01:03:55;;;;;;;5.20;1.20;;;;;;;8.54;100.00;92826.88;2067567;28;20873;-75
2022/09/09 01:05:24;;;;;;;3.47;1.30;;;;;;;8.45;100.00;92824.00;2071206;28;20030;-75
2022/09/09 01:06:33;;;;;;;2.85;1.10;;;;;;;8.49;100.00;92830.00;2072921;28;20038;-75
2022/09/09 01:07:34;;;;;;;3.65;1.40;;;;;;;8.39;100.00;92827.56;2069837;28;20029;-75
2022/09/09 01:09:15;;;;;;;5.70;1.17;;;;;;;8.51;100.00;92827.69;2069291;28;20121;-75
2022/09/09 01:10:49;;;;;;;3.05;0.90;;;;;;;8.56;100.00;92832.56;2069108;28;20076;-75
2022/09/09 01:11:53;;;;;;;5.10;1.25;;;;;;;8.56;100.00;92829.91;2068984;28;20125;-74
2022/09/09 01:12:58;;;;;;;3.40;1.00;;;;;;;8.65;100.00;92841.91;2070549;28;20038;-73
2022/09/09 01:14:13;;;;;;;6.75;1.25;;;;;;;8.62;100.00;92838.16;2073258;28;20026;-74
2022/09/09 01:15:24;;;;;;;3.05;1.05;;;;;;;8.60;100.00;92840.47;2068713;28;20025;-74
2022/09/09 01:16:28;;;;;;;3.70;1.10;;;;;;;8.66;100.00;92846.09;2069696;28;20049;-74
2022/09/09 01:17:58;;;;;;;3.90;1.00;;;;;;;8.71;100.00;92840.28;2070390;28;20046;-74
2022/09/09 01:19:01;;;;;;;3.10;1.20;;;;;;;8.73;100.00;92835.28;2068660;28;20023;-73
2022/09/09 01:20:25;;;;;;;3.08;1.17;;;;;;;8.86;100.00;92840.75;2068867;28;20677;-74
2022/09/09 01:22:07;;;;;;;4.50;1.13;;;;;;;8.92;100.00;92841.78;2070075;28;20031;-73
2022/09/09 01:23:49;;;;;;;4.22;1.10;;;;;;;8.88;100.00;92838.44;2068012;28;20038;-74
2022/09/09 01:25:05;;;;;;;3.78;1.48;;;;;;;8.96;100.00;92837.13;2072257;28;20041;-74
2022/09/09 01:26:12;;;;;;;4.22;1.20;;;;;;;9.00;100.00;92838.56;2075359;28;20034;-74
2022/09/09 01:27:15;;;;;;;3.47;1.35;;;;;;;9.01;100.00;92829.41;2076148;28;20353;-74
2022/09/09 01:28:22;;;;;;;3.78;1.08;;;;;;;9.11;100.00;92829.59;2066636;28;20042;-74
2022/09/09 01:29:25;;;;;;;6.53;1.35;;;;;;;9.00;100.00;92835.13;2076280;28;20785;-74
2022/09/09 01:30:27;;;;;;;2.47;1.17;;;;;;;9.02;100.00;92838.88;2074446;28;20038;-74
2022/09/09 01:32:23;;;;;;;5.93;1.63;;;;;;;9.13;100.00;92830.69;2075803;28;20022;-74
2022/09/09 01:33:24;;;;;;;2.20;1.02;;;;;;;9.16;100.00;92835.19;2045139;28;20510;-74
2022/09/09 01:34:30;;;;;;;4.53;1.48;;;;;;;9.18;100.00;92832.13;2048015;28;20035;-74
2022/09/09 01:35:42;;;;;;;3.45;1.30;;;;;;;9.13;100.00;92836.03;2060221;28;20049;-74
2022/09/09 01:36:50;;;;;;;2.95;1.20;;;;;;;9.21;100.00;92831.25;2077405;28;20401;-74
2022/09/09 01:37:51;;;;;;;4.07;1.38;;;;;;;9.20;100.00;92840.44;2072754;28;20088;-74
2022/09/09 01:38:53;;;;;;;1.95;1.08;;;;;;;9.25;100.00;92830.03;2070569;28;20172;-75
2022/09/09 01:39:54;;;;;;;5.13;1.23;;;;;;;9.26;100.00;92830.78;2075361;28;20025;-74
2022/09/09 01:40:55;;;;;;;3.28;1.33;;;;;;;9.30;100.00;92831.44;2070191;28;20027;-74
2022/09/09 01:41:57;;;;;;;3.17;1.10;;;;;;;9.36;100.00;92831.72;2075302;28;20033;-74
2022/09/09 01:42:58;;;;;;;3.65;1.10;;;;;;;9.39;100.00;92833.56;2074948;28;20030;-74
2022/09/09 01:43:59;;;;;;;3.65;1.20;;;;;;;9.42;100.00;92830.81;2074705;28;20095;-74
2022/09/09 01:45:00;;;;;;;2.83;1.20;;;;;;;9.41;100.00;92828.56;2075081;28;20048;-74
2022/09/09 01:46:02;;;;;;;6.72;1.30;;;;;;;9.40;100.00;92833.16;2075878;28;20109;-74
2022/09/09 01:47:04;;;;;;;5.85;1.75;;;;;;;9.33;100.00;92828.72;2074521;28;20064;-74
2022/09/09 01:48:05;;;;;;;1.85;1.40;;;;;;;9.41;100.00;92829.31;2074036;28;20077;-74
2022/09/09 01:49:08;;;;;;;1.75;1.00;;;;;;;9.50;100.00;92826.06;2074569;28;20042;-74
2022/09/09 01:50:11;;;;;;;5.90;1.67;;;;;;;9.59;100.00;92834.25;2075089;28;20043;-73
2022/09/09 01:51:12;;;;;;;4.10;1.25;;;;;;;9.62;100.00;92838.75;2075156;28;20040;-74
2022/09/09 01:52:13;;;;;;;3.00;1.40;;;;;;;9.64;100.00;92836.41;2075207;28;20029;-74
2022/09/09 01:53:16;;;;;;;3.92;1.40;;;;;;;9.56;100.00;92822.47;2071439;28;20053;-74
2022/09/09 01:54:19;;;;;;;2.67;1.17;;;;;;;9.57;100.00;92825.94;2072010;28;20034;-74
2022/09/09 01:55:30;;;;;;;4.43;1.23;;;;;;;9.57;100.00;92831.25;2072098;28;20036;-73
2022/09/09 01:56:42;;;;;;;;;;;;;;;9.59;100.00;92827.00;2077860;28;20029;-74
2022/09/09 01:58:01;;;;;;;4.13;1.20;;;;;;;9.63;100.00;92824.25;2071649;28;19921;-73
2022/09/09 02:00:08;;;;;;;6.18;1.25;;;;;;;9.66;100.00;92825.31;2074551;28;20653;-74
2022/09/09 02:01:17;;;;;;;1.98;1.20;;;;;;;9.80;100.00;92827.69;2033586;29;20051;-74
2022/09/09 02:02:28;;;;;;;4.80;0.93;;;;;;;9.66;100.00;92822.66;2061520;28;20037;-74
2022/09/09 02:03:33;;;;;;;3.13;1.33;;;;;;;9.63;100.00;92826.91;2070976;28;20380;-75
2022/09/09 02:04:43;;;;;;;2.45;1.10;;;;;;;9.58;100.00;92824.75;2071358;28;20514;-74
2022/09/09 02:05:48;;;;;;;;;;;;;;;9.55;100.00;92817.56;2074925;28;20030;-71
2022/09/09 02:06:55;;;;;;;4.13;1.08;;;;;;;9.60;100.00;92814.41;2071759;28;19954;-74
2022/09/09 02:08:54;;;;;;;5.38;1.00;;;;;;;9.74;100.00;92807.97;2074217;28;20101;-74
2022/09/09 02:10:21;;;;;;;3.85;1.17;;;;;;;9.80;100.00;92817.75;2044448;29;20035;-74
2022/09/09 02:11:28;;;;;;;7.38;1.30;;;;;;;9.80;100.00;92815.09;2044643;29;20071;-74
2022/09/09 02:12:31;;;;;;;3.35;1.20;;;;;;;9.76;100.00;92814.41;2060312;28;20046;-75
2022/09/09 02:15:26;;;;;;;;;;;;;;;9.77;100.00;92821.25;2142890;27;20555;-72
2022/09/09 02:16:36;;;;;;;4.90;1.13;;;;;;;9.82;100.00;92820.75;2139383;27;20261;-71
2022/09/09 02:17:40;;;;;;;3.63;1.20;;;;;;;9.86;100.00;92819.91;2138815;27;20038;-74
2022/09/09 02:18:55;;;;;;;4.53;1.08;;;;;;;9.88;100.00;92820.22;2136503;27;20433;-75
2022/09/09 02:20:14;;;;;;;2.53;1.15;;;;;;;9.97;100.00;92829.19;2137252;27;20097;-72
2022/09/09 02:21:17;;;;;;;6.07;1.30;;;;;;;9.96;100.00;92841.00;2139184;27;20057;-72
2022/09/09 02:22:23;;;;;;;4.53;1.10;;;;;;;9.86;100.00;92842.00;2139011;27;20048;-71
2022/09/09 02:23:25;;;;;;;2.45;1.00;;;;;;;9.86;100.00;92847.34;2137394;27;20030;-74
2022/09/09 02:24:29;;;;;;;5.00;1.50;;;;;;;9.86;100.00;92839.34;2138864;27;20070;-74
2022/09/09 02:25:33;;;;;;;5.60;1.20;;;;;;;9.88;100.00;92847.69;2138114;27;20031;-74
2022/09/09 02:26:40;;;;;;;5.15;1.25;;;;;;;9.97;100.00;92847.88;2141676;27;20030;-73
2022/09/09 02:27:45;;;;;;;4.55;1.10;;;;;;;10.00;100.00;92847.00;2137863;27;20472;-72
2022/09/09 02:28:50;;;;;;;1.83;1.10;;;;;;;10.00;100.00;92846.25;2138821;27;20026;-75
2022/09/09 02:29:54;;;;;;;6.93;1.70;;;;;;;10.00;100.00;92848.94;2135900;27;20045;-72
2022/09/09 02:30:55;;;;;;;7.32;1.42;;;;;;;10.01;100.00;92843.19;2134079;27;20042;-72
2022/09/09 02:32:03;;;;;;;3.78;1.20;;;;;;;9.95;100.00;92846.78;2141121;27;20029;-74
2022/09/09 02:33:07;;;;;;;2.17;1.20;;;;;;;9.97;100.00;92852.47;2137168;27;20033;-71
2022/09/09 02:34:10;;;;;;;4.25;1.48;;;;;;;9.96;100.00;92846.34;2119780;27;20051;-71
2022/09/09 02:35:14;;;;;;;6.18;1.40;;;;;;;10.01;100.00;92847.78;2120624;27;20024;-74
2022/09/09 02:36:17;;;;;;;5.97;1.25;;;;;;;10.04;100.00;92845.00;2136928;27;20071;-73
2022/09/09 02:37:21;;;;;;;5.00;1.20;;;;;;;10.07;100.00;92840.75;2137551;27;20082;-73
2022/09/09 02:38:28;;;;;;;5.00;1.45;;;;;;;10.11;100.00;92835.34;2137480;27;20038;-73
2022/09/09 02:39:29;;;;;;;6.28;1.30;;;;;;;10.11;100.00;92835.34;2137130;27;20030;-71
2022/09/09 02:40:30;;;;;;;2.72;1.30;;;;;;;10.07;100.00;92836.16;2133664;27;20026;-71
2022/09/09 02:41:38;;;;;;;3.90;1.27;;;;;;;10.09;100.00;92825.06;2138906;27;20078;-73
2022/09/09 02:42:41;;;;;;;4.63;1.50;;;;;;;9.96;100.00;92824.97;2135933;27;20039;-72
2022/09/09 02:43:43;;;;;;;3.72;1.40;;;;;;;9.94;100.00;92822.00;2137879;27;20431;-72
2022/09/09 02:44:45;;;;;;;3.70;1.42;;;;;;;9.91;100.00;92824.75;2140916;27;20495;-72
2022/09/09 02:46:03;;;;;;;1.60;1.17;;;;;;;9.99;100.00;92829.50;2137170;27;20014;-72
2022/09/09 02:47:19;;;;;;;6.72;1.65;;;;;;;9.92;100.00;92828.91;2134913;27;20367;-72
2022/09/09 02:48:49;;;;;;;3.28;1.45;;;;;;;9.94;100.00;92827.34;2138355;27;20050;-73
2022/09/09 02:49:56;;;;;;;;;;;;;;;10.07;100.00;92830.84;2137425;27;20234;-72
2022/09/09 02:51:21;;;;;;;4.35;1.08;;;;;;;10.05;100.00;92825.16;2135048;27;19910;-72
2022/09/09 02:52:41;;;;;;;2.38;1.33;;;;;;;10.04;100.00;92820.97;2138211;27;20105;-73
2022/09/09 02:53:59;;;;;;;3.08;1.60;;;;;;;9.91;100.00;92820.16;2136599;27;20102;-73
2022/09/09 02:55:07;;;;;;;4.10;1.60;;;;;;;9.86;100.00;92822.59;2136530;27;20580;-73
2022/09/09 02:56:14;;;;;;;5.90;1.40;;;;;;;9.90;100.00;92826.66;2136807;27;20050;-73
2022/09/09 02:57:31;;;;;;;6.65;1.45;;;;;;;9.83;100.00;92822.25;2136584;27;20041;-73
2022/09/09 02:58:33;;;;;;;3.80;1.20;;;;;;;9.81;100.00;92823.84;2136025;27;20031;-73
2022/09/09 02:59:34;;;;;;;3.55;1.42;;;;;;;9.83;100.00;92827.59;2127437;27;20021;-73
2022/09/09 03:00:36;;;;;;;6.40;1.27;;;;;;;9.76;100.00;92827.00;2131003;27;20105;-73
2022/09/09 03:01:39;;;;;;;3.10;1.20;;;;;;;9.79;100.00;92828.84;2135602;27;20045;-72
2022/09/09 03:02:42;;;;;;;4.30;1.60;;;;;;;9.83;100.00;92834.84;2139028;27;20030;-73
2022/09/09 03:03:44;;;;;;;3.53;1.52;;;;;;;9.83;100.00;92830.28;2139358;27;20031;-73
2022/09/09 03:04:50;;;;;;;4.68;1.55;;;;;;;9.79;100.00;92832.28;2126759;27;20062;-73
2022/09/09 03:05:51;;;;;;;1.95;1.35;;;;;;;9.75;100.00;92828.19;2127666;27;20599;-73
2022/09/09 03:06:52;;;;;;;2.50;1.42;;;;;;;9.73;100.00;92825.16;2125895;27;20037;-73
2022/09/09 03:07:53;;;;;;;1.83;1.30;;;;;;;9.60;100.00;92819.75;2126794;27;20365;-73
2022/09/09 03:08:54;;;;;;;6.57;1.30;;;;;;;9.57;100.00;92817.91;2136017;27;20041;-73
2022/09/09 03:09:55;;;;;;;2.10;1.00;;;;;;;9.67;100.00;92822.25;2135978;27;20544;-73
2022/09/09 03:10:58;;;;;;;4.40;1.40;;;;;;;9.65;100.00;92818.50;2133183;27;20428;-74
2022/09/09 03:12:00;;;;;;;2.33;1.13;;;;;;;9.68;100.00;92818.41;2133659;27;20217;-74
2022/09/09 03:13:01;;;;;;;4.93;1.33;;;;;;;9.65;100.00;92816.56;2135139;27;20520;-74
2022/09/09 03:14:02;;;;;;;3.92;1.25;;;;;;;9.52;100.00;92824.47;2135947;27;20452;-74
2022/09/09 03:15:03;;;;;;;4.10;1.52;;;;;;;9.56;100.00;92824.41;2135512;27;20070;-74
2022/09/09 03:16:05;;;;;;;2.92;1.35;;;;;;;9.59;100.00;92819.00;2137331;27;20030;-74
2022/09/09 03:17:06;;;;;;;3.17;1.20;;;;;;;9.60;100.00;92814.41;2135382;27;20104;-74
2022/09/09 03:18:07;;;;;;;3.30;1.27;;;;;;;9.57;100.00;92816.00;2134535;27;20026;-73
2022/09/09 03:19:08;;;;;;;3.78;1.30;;;;;;;9.58;100.00;92819.41;2136942;27;20035;-73
2022/09/09 03:20:09;;;;;;;3.90;1.48;;;;;;;9.56;100.00;92822.47;2136823;27;20030;-73
2022/09/09 03:21:10;;;;;;;4.93;1.55;;;;;;;9.58;100.00;92827.41;2134923;27;20027;-73
2022/09/09 03:22:13;;;;;;;3.67;1.33;;;;;;;9.53;100.00;92825.25;2135703;27;20019;-74
2022/09/09 03:23:14;;;;;;;6.95;1.42;;;;;;;9.56;100.00;92813.72;2137094;27;20026;-74
2022/09/09 03:24:15;;;;;;;3.63;1.15;;;;;;;9.51;100.00;92820.31;2134728;27;20598;-74
2022/09/09 03:25:16;;;;;;;7.65;1.65;;;;;;;9.54;100.00;92822.16;2134846;27;20023;-74
2022/09/09 03:26:17;;;;;;;3.42;1.13;;;;;;;9.52;100.00;92821.81;2130865;27;20042;-74
2022/09/09 03:27:19;;;;;;;3.75;1.35;;;;;;;9.43;100.00;92818.97;2132694;27;20099;-73
2022/09/09 03:28:21;;;;;;;3.15;1.27;;;;;;;9.37;100.00;92825.22;2126446;27;20055;-74
2022/09/09 03:29:22;;;;;;;4.45;1.58;;;;;;;9.34;100.00;92818.78;2128794;27;20043;-74
2022/09/09 03:30:25;;;;;;;3.97;1.20;;;;;;;9.33;100.00;92822.63;2128745;27;20030;-74
2022/09/09 03:31:29;;;;;;;6.68;1.55;;;;;;;9.34;100.00;92826.78;2128832;27;20107;-73
2022/09/09 03:32:31;;;;;;;3.35;1.48;;;;;;;9.34;100.00;92832.88;2127910;27;20030;-73
2022/09/09 03:33:32;;;;;;;1.70;1.10;;;;;;;9.43;100.00;92826.97;2127282;27;20114;-73
2022/09/09 03:34:33;;;;;;;4.22;1.50;;;;;;;9.49;100.00;92822.66;2127953;27;20579;-72
2022/09/09 03:35:34;;;;;;;4.13;1.15;;;;;;;9.54;100.00;92829.41;2127702;27;20030;-74
2022/09/09 03:36:35;;;;;;;4.25;1.40;;;;;;;9.52;100.00;92827.16;2127963;27;20026;-74
2022/09/09 03:37:36;;;;;;;3.92;1.38;;;;;;;9.59;100.00;92829.66;2129910;27;20444;-73
2022/09/09 03:38:37;;;;;;;8.60;1.50;;;;;;;9.58;100.00;92820.16;2127719;27;20035;-73
2022/09/09 03:39:38;;;;;;;4.15;1.70;;;;;;;9.61;100.00;92812.47;2127745;27;20023;-74
2022/09/09 03:40:39;;;;;;;2.38;1.40;;;;;;;9.75;100.00;92822.84;2127753;27;20046;-74
2022/09/09 03:41:40;;;;;;;1.70;1.20;;;;;;;9.77;100.00;92818.56;2127743;27;20050;-73
2022/09/09 03:42:41;;;;;;;4.88;1.40;;;;;;;9.81;100.00;92829.94;2127714;27;20034;-73
2022/09/09 03:43:42;;;;;;;4.25;1.02;;;;;;;9.79;100.00;92826.19;2126620;27;20047;-73
2022/09/09 03:44:43;;;;;;;4.50;1.30;;;;;;;9.81;100.00;92819.25;2127668;27;20457;-73
2022/09/09 03:45:48;;;;;;;4.00;1.40;;;;;;;9.82;100.00;92825.34;2127622;27;20446;-73
2022/09/09 03:46:49;;;;;;;5.18;1.02;;;;;;;9.80;100.00;92817.00;2127603;27;20035;-73
2022/09/09 03:47:50;;;;;;;5.50;1.50;;;;;;;9.87;100.00;92813.41;2132001;27;20034;-72
2022/09/09 03:48:54;;;;;;;3.38;1.20;;;;;;;9.86;100.00;92812.66;2133530;27;20467;-73
2022/09/09 03:49:55;;;;;;;2.45;1.17;;;;;;;9.90;100.00;92809.91;2134904;27;20037;-72
2022/09/09 03:50:57;;;;;;;4.00;1.58;;;;;;;9.93;100.00;92806.41;2137719;27;20033;-72
2022/09/09 03:51:58;;;;;;;4.22;1.40;;;;;;;9.95;100.00;92812.06;2135453;27;20057;-73
2022/09/09 03:52:59;;;;;;;2.08;1.55;;;;;;;9.96;100.00;92805.53;2135318;27;20562;-73
2022/09/09 03:54:00;;;;;;;2.83;1.27;;;;;;;9.98;100.00;92806.66;2134901;27;20026;-73
2022/09/09 03:55:01;;;;;;;4.45;1.30;;;;;;;10.02;100.00;92803.88;2131520;27;20022;-73
2022/09/09 03:56:03;;;;;;;2.63;1.15;;;;;;;10.06;100.00;92804.56;2129487;27;20026;-72
2022/09/09 03:57:04;;;;;;;2.40;1.10;;;;;;;10.09;100.00;92807.13;2137148;27;20022;-73
2022/09/09 03:58:05;;;;;;;6.55;1.10;;;;;;;10.10;100.00;92807.88;2132119;27;20034;-73
2022/09/09 03:59:06;;;;;;;3.30;1.50;;;;;;;10.15;100.00;92811.97;2130816;27;20464;-73
2022/09/09 04:00:08;;;;;;;1.67;1.17;;;;;;;10.16;100.00;92805.44;2131010;27;20047;-73
2022/09/09 04:01:13;;;;;;;2.90;1.45;;;;;;;10.18;100.00;92809.19;2134807;27;20086;-73
2022/09/09 04:02:15;;;;;;;5.50;1.55;;;;;;;10.19;100.00;92816.06;2128135;27;20060;-73
2022/09/09 04:03:16;;;;;;;3.47;1.20;;;;;;;10.22;100.00;92809.09;2125216;27;20035;-73
2022/09/09 04:04:17;;;;;;;5.13;1.67;;;;;;;10.16;100.00;92808.88;2134146;27;20033;-73
2022/09/09 04:05:18;;;;;;;6.90;1.38;;;;;;;10.16;100.00;92802.78;2133872;27;20023;-73
2022/09/09 04:06:20;;;;;;;4.63;1.42;;;;;;;10.16;100.00;92808.13;2136778;27;20037;-73
2022/09/09 04:07:22;;;;;;;3.33;1.40;;;;;;;10.11;100.00;92809.38;2135694;27;20024;-74
2022/09/09 04:08:26;;;;;;;3.60;1.40;;;;;;;10.10;100.00;92805.22;2134158;27;20102;-75
2022/09/09 04:09:27;;;;;;;8.20;1.50;;;;;;;10.14;100.00;92803.22;2130443;27;20081;-75
2022/09/09 04:10:29;;;;;;;4.32;1.33;;;;;;;10.15;100.00;92807.38;2130183;27;20145;-74
2022/09/09 04:11:30;;;;;;;2.25;1.20;;;;;;;10.12;100.00;92810.13;2134062;27;20028;-73
2022/09/09 04:12:31;;;;;;;5.32;1.30;;;;;;;10.17;100.00;92813.03;2133910;27;20026;-73
2022/09/09 04:13:38;;;;;;;4.22;1.50;;;;;;;10.21;100.00;92808.34;2135300;27;20472;-72
2022/09/09 04:14:39;;;;;;;1.45;1.02;;;;;;;10.22;100.00;92806.44;2131627;27;20034;-73
2022/09/09 04:15:40;;;;;;;4.88;1.40;;;;;;;10.19;100.00;92809.97;2135101;27;20621;-73
2022/09/09 04:16:44;;;;;;;7.28;1.15;;;;;;;10.22;100.00;92803.75;2135873;27;20037;-73
2022/09/09 04:17:45;;;;;;;2.97;1.30;;;;;;;10.23;100.00;92805.28;2135866;27;20026;-73
2022/09/09 04:18:46;;;;;;;4.75;1.40;;;;;;;10.27;100.00;92798.72;2135840;27;20033;-72
2022/09/09 04:19:47;;;;;;;2.78;1.27;;;;;;;10.31;100.00;92798.59;2135587;27;20042;-73
2022/09/09 04:20:50;;;;;;;4.60;1.25;;;;;;;10.31;100.00;92796.66;2134985;27;20030;-73
2022/09/09 04:21:51;;;;;;;8.10;1.30;;;;;;;10.36;100.00;92805.34;2135790;27;20033;-73
2022/09/09 04:22:52;;;;;;;6.38;1.50;;;;;;;10.34;100.00;92805.78;2135977;27;20114;-73
2022/09/09 04:23:53;;;;;;;3.78;1.23;;;;;;;10.36;100.00;92810.69;2135779;27;20448;-73
2022/09/09 04:24:54;;;;;;;5.82;1.40;;;;;;;10.38;100.00;92814.44;2135395;27;20026;-73
2022/09/09 04:25:56;;;;;;;4.20;1.20;;;;;;;10.37;100.00;92812.22;2134203;27;20451;-73
2022/09/09 04:26:57;;;;;;;1.38;1.15;;;;;;;10.37;100.00;92815.63;2135705;27;20032;-73
2022/09/09 04:27:58;;;;;;;6.43;1.33;;;;;;;10.35;100.00;92807.25;2135866;27;20355;-73
2022/09/09 04:28:59;;;;;;;3.08;1.63;;;;;;;10.38;100.00;92805.69;2135814;27;20121;-73
2022/09/09 04:30:00;;;;;;;4.50;1.38;;;;;;;10.35;100.00;92812.59;2135105;27;20034;-73
2022/09/09 04:31:07;;;;;;;3.88;1.58;;;;;;;10.39;100.00;92807.94;2133577;27;20089;-73
2022/09/09 04:32:08;;;;;;;3.53;1.30;;;;;;;10.41;100.00;92805.59;2135479;27;20035;-73
2022/09/09 04:33:10;;;;;;;8.07;1.83;;;;;;;10.42;100.00;92803.66;2135806;27;20408;-74
2022/09/09 04:34:11;;;;;;;5.22;1.48;;;;;;;10.43;100.00;92805.91;2135788;27;20034;-74
2022/09/09 04:35:12;;;;;;;6.80;1.50;;;;;;;10.52;100.00;92806.06;2135433;27;20123;-73
2022/09/09 04:36:13;;;;;;;4.93;1.55;;;;;;;10.55;100.00;92809.81;2134928;27;20457;-72
2022/09/09 04:37:14;;;;;;;5.65;2.00;;;;;;;10.59;100.00;92805.13;2135592;27;20027;-79
2022/09/09 04:38:16;;;;;;;2.60;1.40;;;;;;;10.61;100.00;92808.13;2134576;27;20031;-74
2022/09/09 04:39:17;;;;;;;5.63;1.48;;;;;;;10.63;100.00;92805.03;2135161;27;20041;-76
2022/09/09 04:40:19;;;;;;;5.43;1.70;;;;;;;10.63;100.00;92808.47;2126043;27;20539;-75
2022/09/09 04:41:20;;;;;;;4.57;1.40;;;;;;;10.73;100.00;92823.44;2125809;27;20058;-75
2022/09/09 04:42:22;;;;;;;4.82;1.60;;;;;;;10.65;100.00;92814.13;2135280;27;20026;-74
2022/09/09 04:43:25;;;;;;;5.35;1.40;;;;;;;10.64;100.00;92817.22;2135591;27;20027;-74
2022/09/09 04:44:26;;;;;;;5.40;1.50;;;;;;;10.65;100.00;92822.13;2135548;27;20099;-74
2022/09/09 04:45:27;;;;;;;6.22;1.38;;;;;;;10.58;100.00;92820.41;2135638;27;20046;-73
2022/09/09 04:46:28;;;;;;;2.88;1.50;;;;;;;10.59;100.00;92813.16;2135425;27;20049;-74
2022/09/09 04:47:29;;;;;;;5.00;1.30;;;;;;;10.58;100.00;92819.66;2134287;27;20019;-74
2022/09/09 04:48:31;;;;;;;2.25;1.08;;;;;;;10.66;100.00;92817.53;2134677;27;20215;-71
2022/09/09 04:49:32;;;;;;;4.53;1.40;;;;;;;10.65;100.00;92818.72;2134998;27;20031;-75
2022/09/09 04:50:33;;;;;;;3.22;1.55;;;;;;;10.56;100.00;92817.41;2134353;27;20057;-72
2022/09/09 04:51:34;;;;;;;3.60;1.38;;;;;;;10.56;100.00;92820.06;2117478;27;20027;-73
2022/09/09 04:52:35;;;;;;;2.95;1.25;;;;;;;10.50;100.00;92813.75;2117316;27;20076;-73
2022/09/09 04:53:37;;;;;;;2.83;1.30;;;;;;;10.44;100.00;92820.78;2135401;27;20455;-73
2022/09/09 04:54:38;;;;;;;1.98;1.50;;;;;;;10.32;100.00;92824.91;2125889;27;20031;-73
2022/09/09 04:55:39;;;;;;;4.90;1.73;;;;;;;10.32;100.00;92829.50;2122216;27;20678;-73
2022/09/09 04:56:42;;;;;;;3.80;1.60;;;;;;;10.34;100.00;92827.91;2135075;27;20042;-73
2022/09/09 04:57:43;;;;;;;2.35;1.30;;;;;;;10.35;100.00;92828.63;2133218;27;20026;-74
2022/09/09 04:58:45;;;;;;;5.45;1.58;;;;;;;10.33;100.00;92826.41;2134277;27;20037;-74
2022/09/09 04:59:46;;;;;;;3.53;1.73;;;;;;;10.41;100.00;92826.97;2132987;27;20061;-73
2022/09/09 05:00:47;;;;;;;5.38;1.65;;;;;;;10.39;100.00;92829.31;2128679;27;20448;-73
2022/09/09 05:01:49;;;;;;;9.02;1.85;;;;;;;10.33;100.00;92828.31;2135417;27;20025;-73
2022/09/09 05:02:51;;;;;;;4.95;1.40;;;;;;;10.39;100.00;92828.56;2127869;27;20031;-73
2022/09/09 05:03:53;;;;;;;4.18;1.60;;;;;;;10.39;100.00;92833.91;2132503;27;20392;-73
2022/09/09 05:04:54;;;;;;;5.78;1.73;;;;;;;10.38;100.00;92835.81;2130293;27;20039;-74
2022/09/09 05:06:04;;;;;;;4.60;1.48;;;;;;;10.41;100.00;92836.91;2129727;27;20030;-73
2022/09/09 05:07:04;;;;;;;4.68;1.40;;;;;;;10.40;100.00;92838.81;2128033;27;20026;-73
2022/09/09 05:08:08;;;;;;;6.40;1.75;;;;;;;10.44;100.00;92836.78;2129342;27;20026;-74
2022/09/09 05:09:09;;;;;;;5.35;1.80;;;;;;;10.47;100.00;92835.97;2129636;27;20035;-73
2022/09/09 05:10:10;;;;;;;3.55;1.40;;;;;;;10.52;100.00;92834.69;2130137;27;20118;-73
2022/09/09 05:11:20;;;;;;;3.05;1.50;;;;;;;10.51;100.00;92836.63;2133330;27;20035;-73
2022/09/09 05:12:23;;;;;;;7.43;1.98;;;;;;;10.56;100.00;92833.44;2127935;27;20061;-73
2022/09/09 05:13:25;;;;;;;6.78;1.60;;;;;;;10.62;100.00;92839.00;2126244;27;20034;-74
2022/09/09 05:14:27;;;;;;;7.10;1.60;;;;;;;10.65;100.00;92829.41;2126090;27;20126;-73
2022/09/09 05:15:29;;;;;;;4.07;1.50;;;;;;;10.65;100.00;92838.16;2127317;27;20476;-73
2022/09/09 05:16:31;;;;;;;3.53;1.40;;;;;;;10.66;100.00;92836.25;2127336;27;20457;-73
2022/09/09 05:17:32;;;;;;;4.15;1.40;;;;;;;10.68;100.00;92833.91;2126154;27;20106;-73
2022/09/09 05:18:33;;;;;;;4.97;1.63;;;;;;;10.70;100.00;92831.56;2125049;27;20031;-73